sensor_id;sensor_type;location;lat;lon;timestamp;P1;durP1;ratioP1;P2;durP2;ratioP2
48268;SDS011;34088;52.232;5.196;2024-02-21T00:03:06;26.25;;;5.20;;
48268;SDS011;34088;52.232;5.196;2024-02-21T00:05:32;23.92;;;4.82;;
48268;SDS011;34088;52.232;5.196;2024-02-21T00:10:24;22.27;;;4.60;;
48268;SDS011;34088;52.232;5.196;2024-02-21T00:12:50;24.10;;;5.75;;
48268;SDS011;34088;52.232;5.196;2024-02-21T00:17:40;22.20;;;5.47;;
48268;SDS011;34088;52.232;5.196;2024-02-21T00:33:14;25.05;;;5.95;;
48268;SDS011;34088;52.232;5.196;2024-02-21T00:35:39;21.58;;;5.35;;
48268;SDS011;34088;52.232;5.196;2024-02-21T00:40:30;29.30;;;5.35;;
48268;SDS011;34088;52.232;5.196;2024-02-21T00:42:55;25.65;;;5.22;;
48268;SDS011;34088;52.232;5.196;2024-02-21T00:45:21;27.58;;;6.03;;
48268;SDS011;34088;52.232;5.196;2024-02-21T00:50:11;20.73;;;5.00;;
48268;SDS011;34088;52.232;5.196;2024-02-21T00:52:37;20.20;;;5.07;;
48268;SDS011;34088;52.232;5.196;2024-02-21T00:55:02;25.73;;;6.03;;
48268;SDS011;34088;52.232;5.196;2024-02-21T00:57:27;20.92;;;5.47;;
48268;SDS011;34088;52.232;5.196;2024-02-21T01:02:18;29.87;;;5.83;;
48268;SDS011;34088;52.232;5.196;2024-02-21T01:04:44;25.08;;;5.38;;
48268;SDS011;34088;52.232;5.196;2024-02-21T01:09:34;26.90;;;6.10;;
48268;SDS011;34088;52.232;5.196;2024-02-21T01:11:59;26.17;;;5.65;;
48268;SDS011;34088;52.232;5.196;2024-02-21T01:14:25;27.15;;;5.63;;
48268;SDS011;34088;52.232;5.196;2024-02-21T01:19:15;27.07;;;5.50;;
48268;SDS011;34088;52.232;5.196;2024-02-21T01:21:41;22.53;;;5.87;;
48268;SDS011;34088;52.232;5.196;2024-02-21T01:24:06;25.57;;;6.00;;
48268;SDS011;34088;52.232;5.196;2024-02-21T01:26:31;33.27;;;6.37;;
48268;SDS011;34088;52.232;5.196;2024-02-21T01:28:57;26.38;;;5.70;;
48268;SDS011;34088;52.232;5.196;2024-02-21T01:31:22;26.05;;;5.97;;
48268;SDS011;34088;52.232;5.196;2024-02-21T01:33:47;24.90;;;6.38;;
48268;SDS011;34088;52.232;5.196;2024-02-21T01:36:13;27.38;;;6.05;;
48268;SDS011;34088;52.232;5.196;2024-02-21T01:38:38;28.90;;;6.32;;
48268;SDS011;34088;52.232;5.196;2024-02-21T01:41:03;26.03;;;5.70;;
48268;SDS011;34088;52.232;5.196;2024-02-21T01:43:29;26.70;;;5.55;;
48268;SDS011;34088;52.232;5.196;2024-02-21T01:48:22;30.50;;;6.30;;
48268;SDS011;34088;52.232;5.196;2024-02-21T01:50:48;27.60;;;5.68;;
48268;SDS011;34088;52.232;5.196;2024-02-21T01:55:59;21.17;;;5.03;;
48268;SDS011;34088;52.232;5.196;2024-02-21T01:58:26;29.70;;;5.47;;
48268;SDS011;34088;52.232;5.196;2024-02-21T02:00:53;25.73;;;4.80;;
48268;SDS011;34088;52.232;5.196;2024-02-21T02:03:21;29.13;;;5.10;;
48268;SDS011;34088;52.232;5.196;2024-02-21T02:05:47;30.55;;;5.97;;
48268;SDS011;34088;52.232;5.196;2024-02-21T02:08:14;28.05;;;5.10;;
48268;SDS011;34088;52.232;5.196;2024-02-21T02:10:43;26.02;;;5.20;;
48268;SDS011;34088;52.232;5.196;2024-02-21T02:13:09;24.52;;;4.95;;
48268;SDS011;34088;52.232;5.196;2024-02-21T02:15:41;23.85;;;4.55;;
48268;SDS011;34088;52.232;5.196;2024-02-21T02:18:08;32.67;;;5.32;;
48268;SDS011;34088;52.232;5.196;2024-02-21T02:20:34;32.28;;;5.30;;
48268;SDS011;34088;52.232;5.196;2024-02-21T02:23:00;29.50;;;5.20;;
48268;SDS011;34088;52.232;5.196;2024-02-21T02:25:28;29.10;;;5.60;;
48268;SDS011;34088;52.232;5.196;2024-02-21T02:27:53;25.58;;;5.35;;
48268;SDS011;34088;52.232;5.196;2024-02-21T02:32:45;27.83;;;5.50;;
48268;SDS011;34088;52.232;5.196;2024-02-21T02:35:11;21.83;;;5.28;;
48268;SDS011;34088;52.232;5.196;2024-02-21T02:37:36;24.45;;;4.93;;
48268;SDS011;34088;52.232;5.196;2024-02-21T02:40:04;29.50;;;5.60;;
48268;SDS011;34088;52.232;5.196;2024-02-21T02:42:30;24.27;;;5.18;;
48268;SDS011;34088;52.232;5.196;2024-02-21T02:44:56;27.75;;;5.55;;
48268;SDS011;34088;52.232;5.196;2024-02-21T02:49:47;28.35;;;5.90;;
48268;SDS011;34088;52.232;5.196;2024-02-21T02:52:15;29.35;;;5.95;;
48268;SDS011;34088;52.232;5.196;2024-02-21T02:54:41;27.58;;;5.68;;
48268;SDS011;34088;52.232;5.196;2024-02-21T02:57:06;24.35;;;5.32;;
48268;SDS011;34088;52.232;5.196;2024-02-21T03:01:57;22.75;;;4.97;;
48268;SDS011;34088;52.232;5.196;2024-02-21T03:04:23;26.67;;;5.05;;
48268;SDS011;34088;52.232;5.196;2024-02-21T03:09:13;31.80;;;5.78;;
48268;SDS011;34088;52.232;5.196;2024-02-21T03:11:40;26.23;;;5.40;;
48268;SDS011;34088;52.232;5.196;2024-02-21T03:14:08;33.63;;;6.15;;
48268;SDS011;34088;52.232;5.196;2024-02-21T03:16:33;24.55;;;5.35;;
48268;SDS011;34088;52.232;5.196;2024-02-21T03:18:59;26.17;;;5.18;;
48268;SDS011;34088;52.232;5.196;2024-02-21T03:23:49;27.57;;;6.03;;
48268;SDS011;34088;52.232;5.196;2024-02-21T03:26:14;24.45;;;5.25;;
48268;SDS011;34088;52.232;5.196;2024-02-21T03:28:42;32.35;;;5.80;;
48268;SDS011;34088;52.232;5.196;2024-02-21T03:31:10;22.48;;;5.70;;
48268;SDS011;34088;52.232;5.196;2024-02-21T03:33:37;23.58;;;5.35;;
48268;SDS011;34088;52.232;5.196;2024-02-21T03:36:02;21.85;;;5.72;;
48268;SDS011;34088;52.232;5.196;2024-02-21T03:40:53;29.73;;;6.25;;
48268;SDS011;34088;52.232;5.196;2024-02-21T03:45:44;24.52;;;6.43;;
48268;SDS011;34088;52.232;5.196;2024-02-21T03:48:09;27.83;;;5.70;;
48268;SDS011;34088;52.232;5.196;2024-02-21T03:50:34;24.50;;;6.05;;
48268;SDS011;34088;52.232;5.196;2024-02-21T03:53:00;25.80;;;6.00;;
48268;SDS011;34088;52.232;5.196;2024-02-21T03:55:25;26.63;;;6.10;;
48268;SDS011;34088;52.232;5.196;2024-02-21T04:00:16;28.08;;;6.00;;
48268;SDS011;34088;52.232;5.196;2024-02-21T04:02:41;25.83;;;6.82;;
48268;SDS011;34088;52.232;5.196;2024-02-21T04:07:35;19.90;;;6.30;;
48268;SDS011;34088;52.232;5.196;2024-02-21T04:10:01;27.42;;;7.15;;
48268;SDS011;34088;52.232;5.196;2024-02-21T04:12:27;21.10;;;5.47;;
48268;SDS011;34088;52.232;5.196;2024-02-21T04:14:52;27.80;;;6.63;;
48268;SDS011;34088;52.232;5.196;2024-02-21T04:17:17;21.80;;;5.95;;
48268;SDS011;34088;52.232;5.196;2024-02-21T04:22:08;27.30;;;7.43;;
48268;SDS011;34088;52.232;5.196;2024-02-21T04:24:33;27.23;;;8.77;;
48268;SDS011;34088;52.232;5.196;2024-02-21T04:26:58;26.00;;;9.93;;
48268;SDS011;34088;52.232;5.196;2024-02-21T04:29:24;22.07;;;11.50;;
48268;SDS011;34088;52.232;5.196;2024-02-21T04:31:49;18.90;;;9.55;;
48268;SDS011;34088;52.232;5.196;2024-02-21T04:36:39;20.70;;;9.13;;
48268;SDS011;34088;52.232;5.196;2024-02-21T04:39:05;21.40;;;9.45;;
48268;SDS011;34088;52.232;5.196;2024-02-21T04:41:30;22.25;;;9.20;;
48268;SDS011;34088;52.232;5.196;2024-02-21T04:43:55;20.83;;;9.10;;
48268;SDS011;34088;52.232;5.196;2024-02-21T04:46:21;19.63;;;8.75;;
48268;SDS011;34088;52.232;5.196;2024-02-21T04:51:12;21.77;;;9.13;;
48268;SDS011;34088;52.232;5.196;2024-02-21T04:53:38;23.30;;;9.63;;
48268;SDS011;34088;52.232;5.196;2024-02-21T04:56:04;23.15;;;8.95;;
48268;SDS011;34088;52.232;5.196;2024-02-21T04:58:29;23.00;;;9.13;;
48268;SDS011;34088;52.232;5.196;2024-02-21T05:03:20;22.65;;;8.70;;
48268;SDS011;34088;52.232;5.196;2024-02-21T05:08:11;23.85;;;9.70;;
48268;SDS011;34088;52.232;5.196;2024-02-21T05:13:01;23.88;;;9.98;;
48268;SDS011;34088;52.232;5.196;2024-02-21T05:17:52;23.38;;;9.98;;
48268;SDS011;34088;52.232;5.196;2024-02-21T05:20:17;20.42;;;10.10;;
48268;SDS011;34088;52.232;5.196;2024-02-21T05:22:43;19.15;;;10.07;;
48268;SDS011;34088;52.232;5.196;2024-02-21T05:27:33;20.98;;;10.15;;
48268;SDS011;34088;52.232;5.196;2024-02-21T05:30:00;22.70;;;10.90;;
48268;SDS011;34088;52.232;5.196;2024-02-21T05:32:26;21.93;;;10.77;;
48268;SDS011;34088;52.232;5.196;2024-02-21T05:34:51;22.30;;;10.73;;
48268;SDS011;34088;52.232;5.196;2024-02-21T05:37:16;22.83;;;11.48;;
48268;SDS011;34088;52.232;5.196;2024-02-21T05:39:42;20.63;;;11.40;;
48268;SDS011;34088;52.232;5.196;2024-02-21T05:42:07;19.60;;;10.93;;
48268;SDS011;34088;52.232;5.196;2024-02-21T05:44:32;19.95;;;11.60;;
48268;SDS011;34088;52.232;5.196;2024-02-21T05:49:23;26.37;;;12.20;;
48268;SDS011;34088;52.232;5.196;2024-02-21T05:51:48;24.42;;;12.85;;
48268;SDS011;34088;52.232;5.196;2024-02-21T05:56:39;25.80;;;12.53;;
48268;SDS011;34088;52.232;5.196;2024-02-21T05:59:04;21.52;;;13.23;;
48268;SDS011;34088;52.232;5.196;2024-02-21T06:03:55;25.17;;;13.37;;
48268;SDS011;34088;52.232;5.196;2024-02-21T06:06:20;21.02;;;12.63;;
48268;SDS011;34088;52.232;5.196;2024-02-21T06:08:47;25.15;;;13.43;;
48268;SDS011;34088;52.232;5.196;2024-02-21T06:11:12;26.33;;;13.65;;
48268;SDS011;34088;52.232;5.196;2024-02-21T06:13:38;24.58;;;13.75;;
48268;SDS011;34088;52.232;5.196;2024-02-21T06:16:04;24.45;;;14.30;;
48268;SDS011;34088;52.232;5.196;2024-02-21T06:18:31;23.58;;;13.52;;
48268;SDS011;34088;52.232;5.196;2024-02-21T06:20:56;27.52;;;14.00;;
48268;SDS011;34088;52.232;5.196;2024-02-21T06:23:21;24.60;;;13.73;;
48268;SDS011;34088;52.232;5.196;2024-02-21T06:25:46;21.43;;;13.23;;
48268;SDS011;34088;52.232;5.196;2024-02-21T06:28:12;21.83;;;13.88;;
48268;SDS011;34088;52.232;5.196;2024-02-21T06:30:38;22.80;;;13.77;;
48268;SDS011;34088;52.232;5.196;2024-02-21T06:33:04;22.85;;;13.55;;
48268;SDS011;34088;52.232;5.196;2024-02-21T06:35:29;26.70;;;13.90;;
48268;SDS011;34088;52.232;5.196;2024-02-21T06:37:55;21.65;;;14.00;;
48268;SDS011;34088;52.232;5.196;2024-02-21T06:40:21;28.27;;;14.02;;
48268;SDS011;34088;52.232;5.196;2024-02-21T06:42:47;25.27;;;14.00;;
48268;SDS011;34088;52.232;5.196;2024-02-21T06:45:13;22.95;;;14.73;;
48268;SDS011;34088;52.232;5.196;2024-02-21T06:47:38;25.88;;;14.50;;
48268;SDS011;34088;52.232;5.196;2024-02-21T06:52:29;25.35;;;14.52;;
48268;SDS011;34088;52.232;5.196;2024-02-21T06:54:54;28.98;;;15.07;;
48268;SDS011;34088;52.232;5.196;2024-02-21T06:57:20;28.30;;;15.13;;
48268;SDS011;34088;52.232;5.196;2024-02-21T06:59:45;37.90;;;16.13;;
48268;SDS011;34088;52.232;5.196;2024-02-21T07:04:36;22.77;;;15.05;;
48268;SDS011;34088;52.232;5.196;2024-02-21T07:09:27;25.38;;;16.13;;
48268;SDS011;34088;52.232;5.196;2024-02-21T07:11:53;33.60;;;16.55;;
48268;SDS011;34088;52.232;5.196;2024-02-21T07:14:19;27.10;;;15.63;;
48268;SDS011;34088;52.232;5.196;2024-02-21T07:19:09;28.13;;;15.57;;
48268;SDS011;34088;52.232;5.196;2024-02-21T07:21:35;28.95;;;15.90;;
48268;SDS011;34088;52.232;5.196;2024-02-21T07:24:02;31.73;;;16.40;;
48268;SDS011;34088;52.232;5.196;2024-02-21T07:26:29;27.63;;;15.23;;
48268;SDS011;34088;52.232;5.196;2024-02-21T07:28:54;33.35;;;16.40;;
48268;SDS011;34088;52.232;5.196;2024-02-21T07:31:19;28.88;;;15.90;;
48268;SDS011;34088;52.232;5.196;2024-02-21T07:33:44;28.60;;;15.13;;
48268;SDS011;34088;52.232;5.196;2024-02-21T07:36:10;29.77;;;14.57;;
48268;SDS011;34088;52.232;5.196;2024-02-21T07:38:36;27.77;;;14.77;;
48268;SDS011;34088;52.232;5.196;2024-02-21T07:41:02;26.52;;;14.30;;
48268;SDS011;34088;52.232;5.196;2024-02-21T07:43:29;31.52;;;15.38;;
48268;SDS011;34088;52.232;5.196;2024-02-21T07:45:54;30.15;;;15.23;;
48268;SDS011;34088;52.232;5.196;2024-02-21T07:48:20;29.70;;;15.40;;
48268;SDS011;34088;52.232;5.196;2024-02-21T07:50:49;27.98;;;15.82;;
48268;SDS011;34088;52.232;5.196;2024-02-21T07:53:14;30.60;;;16.95;;
48268;SDS011;34088;52.232;5.196;2024-02-21T07:55:40;30.73;;;15.20;;
48268;SDS011;34088;52.232;5.196;2024-02-21T08:00:30;30.93;;;16.47;;
48268;SDS011;34088;52.232;5.196;2024-02-21T08:02:56;30.00;;;16.27;;
48268;SDS011;34088;52.232;5.196;2024-02-21T08:07:48;32.47;;;16.15;;
48268;SDS011;34088;52.232;5.196;2024-02-21T08:10:13;29.75;;;16.98;;
48268;SDS011;34088;52.232;5.196;2024-02-21T08:12:38;30.63;;;16.67;;
48268;SDS011;34088;52.232;5.196;2024-02-21T08:15:04;30.77;;;15.75;;
48268;SDS011;34088;52.232;5.196;2024-02-21T08:17:30;33.83;;;15.35;;
48268;SDS011;34088;52.232;5.196;2024-02-21T08:19:55;29.45;;;15.73;;
48268;SDS011;34088;52.232;5.196;2024-02-21T08:24:46;34.13;;;16.23;;
48268;SDS011;34088;52.232;5.196;2024-02-21T08:27:11;32.58;;;16.13;;
48268;SDS011;34088;52.232;5.196;2024-02-21T08:32:01;31.20;;;15.68;;
48268;SDS011;34088;52.232;5.196;2024-02-21T08:34:27;26.23;;;15.23;;
48268;SDS011;34088;52.232;5.196;2024-02-21T08:36:54;30.02;;;15.60;;
48268;SDS011;34088;52.232;5.196;2024-02-21T08:39:20;29.50;;;16.90;;
48268;SDS011;34088;52.232;5.196;2024-02-21T08:41:46;28.65;;;16.63;;
48268;SDS011;34088;52.232;5.196;2024-02-21T08:44:11;29.85;;;16.60;;
48268;SDS011;34088;52.232;5.196;2024-02-21T08:46:36;31.73;;;17.02;;
48268;SDS011;34088;52.232;5.196;2024-02-21T08:49:05;32.15;;;17.92;;
48268;SDS011;34088;52.232;5.196;2024-02-21T08:51:30;28.45;;;16.92;;
48268;SDS011;34088;52.232;5.196;2024-02-21T08:53:56;29.58;;;16.20;;
48268;SDS011;34088;52.232;5.196;2024-02-21T08:56:21;32.28;;;18.20;;
48268;SDS011;34088;52.232;5.196;2024-02-21T09:01:12;30.35;;;17.50;;
48268;SDS011;34088;52.232;5.196;2024-02-21T09:03:37;32.67;;;18.30;;
48268;SDS011;34088;52.232;5.196;2024-02-21T09:06:06;29.30;;;17.58;;
48268;SDS011;34088;52.232;5.196;2024-02-21T09:08:32;32.78;;;19.15;;
48268;SDS011;34088;52.232;5.196;2024-02-21T09:13:24;31.02;;;17.98;;
48268;SDS011;34088;52.232;5.196;2024-02-21T09:15:49;37.43;;;18.87;;
48268;SDS011;34088;52.232;5.196;2024-02-21T09:18:15;34.67;;;17.75;;
48268;SDS011;34088;52.232;5.196;2024-02-21T09:20:41;32.33;;;18.75;;
48268;SDS011;34088;52.232;5.196;2024-02-21T09:23:07;33.17;;;18.15;;
48268;SDS011;34088;52.232;5.196;2024-02-21T09:25:32;29.92;;;17.65;;
48268;SDS011;34088;52.232;5.196;2024-02-21T09:27:58;36.83;;;18.92;;
48268;SDS011;34088;52.232;5.196;2024-02-21T09:32:48;32.30;;;17.70;;
48268;SDS011;34088;52.232;5.196;2024-02-21T09:35:14;29.05;;;17.23;;
48268;SDS011;34088;52.232;5.196;2024-02-21T09:40:05;34.43;;;16.37;;
48268;SDS011;34088;52.232;5.196;2024-02-21T09:42:38;29.48;;;16.48;;
48268;SDS011;34088;52.232;5.196;2024-02-21T09:45:20;28.30;;;15.68;;
48268;SDS011;34088;52.232;5.196;2024-02-21T09:50:15;26.77;;;14.55;;
48268;SDS011;34088;52.232;5.196;2024-02-21T09:52:41;25.08;;;14.93;;
48268;SDS011;34088;52.232;5.196;2024-02-21T09:55:08;23.02;;;14.45;;
48268;SDS011;34088;52.232;5.196;2024-02-21T09:57:35;21.50;;;13.30;;
48268;SDS011;34088;52.232;5.196;2024-02-21T10:00:02;27.35;;;13.85;;
48268;SDS011;34088;52.232;5.196;2024-02-21T10:02:32;22.38;;;13.02;;
48268;SDS011;34088;52.232;5.196;2024-02-21T10:04:58;21.90;;;13.18;;
48268;SDS011;34088;52.232;5.196;2024-02-21T10:09:59;22.92;;;12.57;;
48268;SDS011;34088;52.232;5.196;2024-02-21T10:12:25;20.77;;;11.98;;
48268;SDS011;34088;52.232;5.196;2024-02-21T10:14:59;20.38;;;12.30;;
48268;SDS011;34088;52.232;5.196;2024-02-21T10:17:25;20.95;;;11.05;;
48268;SDS011;34088;52.232;5.196;2024-02-21T10:19:51;18.33;;;11.13;;
48268;SDS011;34088;52.232;5.196;2024-02-21T10:24:42;16.23;;;10.63;;
48268;SDS011;34088;52.232;5.196;2024-02-21T10:29:37;19.45;;;11.48;;
48268;SDS011;34088;52.232;5.196;2024-02-21T10:32:06;22.08;;;11.77;;
48268;SDS011;34088;52.232;5.196;2024-02-21T10:34:39;19.93;;;11.10;;
48268;SDS011;34088;52.232;5.196;2024-02-21T10:37:09;18.73;;;11.13;;
48268;SDS011;34088;52.232;5.196;2024-02-21T10:39:37;15.60;;;9.77;;
48268;SDS011;34088;52.232;5.196;2024-02-21T10:42:03;17.30;;;10.70;;
48268;SDS011;34088;52.232;5.196;2024-02-21T10:46:56;18.10;;;10.15;;
48268;SDS011;34088;52.232;5.196;2024-02-21T10:49:23;16.85;;;9.88;;
48268;SDS011;34088;52.232;5.196;2024-02-21T10:52:15;18.25;;;10.38;;
48268;SDS011;34088;52.232;5.196;2024-02-21T10:55:16;15.50;;;9.57;;
48268;SDS011;34088;52.232;5.196;2024-02-21T10:57:44;13.57;;;8.93;;
48268;SDS011;34088;52.232;5.196;2024-02-21T11:00:11;14.50;;;9.02;;
48268;SDS011;34088;52.232;5.196;2024-02-21T11:02:39;13.77;;;8.25;;
48268;SDS011;34088;52.232;5.196;2024-02-21T11:05:06;15.82;;;8.15;;
48268;SDS011;34088;52.232;5.196;2024-02-21T11:07:32;10.98;;;8.25;;
48268;SDS011;34088;52.232;5.196;2024-02-21T11:10:02;13.48;;;8.48;;
48268;SDS011;34088;52.232;5.196;2024-02-21T11:12:28;12.15;;;8.18;;
48268;SDS011;34088;52.232;5.196;2024-02-21T11:15:04;13.57;;;8.18;;
48268;SDS011;34088;52.232;5.196;2024-02-21T11:17:31;12.57;;;8.13;;
48268;SDS011;34088;52.232;5.196;2024-02-21T11:19:56;11.02;;;8.10;;
48268;SDS011;34088;52.232;5.196;2024-02-21T11:22:21;13.70;;;8.00;;
48268;SDS011;34088;52.232;5.196;2024-02-21T11:24:49;10.57;;;7.78;;
48268;SDS011;34088;52.232;5.196;2024-02-21T11:27:15;12.18;;;8.30;;
48268;SDS011;34088;52.232;5.196;2024-02-21T11:29:49;11.00;;;7.93;;
48268;SDS011;34088;52.232;5.196;2024-02-21T11:32:20;14.48;;;8.82;;
48268;SDS011;34088;52.232;5.196;2024-02-21T11:34:56;11.25;;;8.77;;
48268;SDS011;34088;52.232;5.196;2024-02-21T11:37:26;12.43;;;8.73;;
48268;SDS011;34088;52.232;5.196;2024-02-21T11:39:58;12.57;;;9.40;;
48268;SDS011;34088;52.232;5.196;2024-02-21T11:42:27;14.90;;;9.68;;
48268;SDS011;34088;52.232;5.196;2024-02-21T11:44:53;15.43;;;9.25;;
48268;SDS011;34088;52.232;5.196;2024-02-21T11:47:22;14.88;;;9.45;;
48268;SDS011;34088;52.232;5.196;2024-02-21T11:49:47;13.10;;;9.27;;
48268;SDS011;34088;52.232;5.196;2024-02-21T11:52:15;15.52;;;10.68;;
48268;SDS011;34088;52.232;5.196;2024-02-21T11:54:41;16.10;;;9.80;;
48268;SDS011;34088;52.232;5.196;2024-02-21T11:59:33;13.98;;;10.07;;
48268;SDS011;34088;52.232;5.196;2024-02-21T12:01:59;14.40;;;9.40;;
48268;SDS011;34088;52.232;5.196;2024-02-21T12:04:25;13.77;;;9.75;;
48268;SDS011;34088;52.232;5.196;2024-02-21T12:06:52;13.13;;;10.10;;
48268;SDS011;34088;52.232;5.196;2024-02-21T12:09:19;13.52;;;9.40;;
48268;SDS011;34088;52.232;5.196;2024-02-21T12:11:44;14.38;;;10.05;;
48268;SDS011;34088;52.232;5.196;2024-02-21T12:14:11;16.17;;;10.75;;
48268;SDS011;34088;52.232;5.196;2024-02-21T12:16:41;17.92;;;11.18;;
48268;SDS011;34088;52.232;5.196;2024-02-21T12:19:07;15.13;;;10.77;;
48268;SDS011;34088;52.232;5.196;2024-02-21T12:21:34;19.23;;;11.23;;
48268;SDS011;34088;52.232;5.196;2024-02-21T12:24:12;18.58;;;10.65;;
48268;SDS011;34088;52.232;5.196;2024-02-21T12:26:47;17.42;;;10.57;;
48268;SDS011;34088;52.232;5.196;2024-02-21T12:31:38;15.67;;;9.53;;
48268;SDS011;34088;52.232;5.196;2024-02-21T12:34:04;13.77;;;9.63;;
48268;SDS011;34088;52.232;5.196;2024-02-21T12:38:55;13.77;;;9.25;;
48268;SDS011;34088;52.232;5.196;2024-02-21T12:41:21;13.73;;;9.10;;
48268;SDS011;34088;52.232;5.196;2024-02-21T12:43:46;13.25;;;9.55;;
48268;SDS011;34088;52.232;5.196;2024-02-21T12:48:37;12.40;;;8.90;;
48268;SDS011;34088;52.232;5.196;2024-02-21T12:53:29;14.05;;;9.18;;
48268;SDS011;34088;52.232;5.196;2024-02-21T12:55:55;14.60;;;8.98;;
48268;SDS011;34088;52.232;5.196;2024-02-21T12:58:21;11.48;;;9.02;;
48268;SDS011;34088;52.232;5.196;2024-02-21T13:00:47;11.40;;;8.90;;
48268;SDS011;34088;52.232;5.196;2024-02-21T13:05:37;12.95;;;9.20;;
48268;SDS011;34088;52.232;5.196;2024-02-21T13:10:29;12.20;;;8.38;;
48268;SDS011;34088;52.232;5.196;2024-02-21T13:15:19;14.10;;;8.47;;
48268;SDS011;34088;52.232;5.196;2024-02-21T13:17:45;13.98;;;8.90;;
48268;SDS011;34088;52.232;5.196;2024-02-21T13:22:36;12.00;;;7.78;;
48268;SDS011;34088;52.232;5.196;2024-02-21T13:25:02;15.85;;;8.82;;
48268;SDS011;34088;52.232;5.196;2024-02-21T13:29:53;12.27;;;8.77;;
48268;SDS011;34088;52.232;5.196;2024-02-21T13:32:18;10.23;;;7.57;;
48268;SDS011;34088;52.232;5.196;2024-02-21T13:37:09;10.23;;;7.15;;
48268;SDS011;34088;52.232;5.196;2024-02-21T13:42:00;11.90;;;7.07;;
48268;SDS011;34088;52.232;5.196;2024-02-21T13:46:51;12.07;;;7.13;;
48268;SDS011;34088;52.232;5.196;2024-02-21T13:49:16;11.45;;;6.63;;
48268;SDS011;34088;52.232;5.196;2024-02-21T13:54:07;13.02;;;6.45;;
48268;SDS011;34088;52.232;5.196;2024-02-21T13:56:34;9.80;;;5.93;;
48268;SDS011;34088;52.232;5.196;2024-02-21T13:58:59;15.90;;;7.20;;
48268;SDS011;34088;52.232;5.196;2024-02-21T14:03:51;14.00;;;6.88;;
48268;SDS011;34088;52.232;5.196;2024-02-21T14:08:42;13.95;;;7.70;;
48268;SDS011;34088;52.232;5.196;2024-02-21T14:13:32;11.98;;;6.88;;
48268;SDS011;34088;52.232;5.196;2024-02-21T14:15:58;13.90;;;7.63;;
48268;SDS011;34088;52.232;5.196;2024-02-21T14:20:48;13.55;;;6.85;;
48268;SDS011;34088;52.232;5.196;2024-02-21T14:25:39;17.20;;;6.78;;
48268;SDS011;34088;52.232;5.196;2024-02-21T14:28:05;9.93;;;6.75;;
48268;SDS011;34088;52.232;5.196;2024-02-21T14:32:56;11.53;;;6.60;;
48268;SDS011;34088;52.232;5.196;2024-02-21T14:35:21;14.32;;;7.07;;
48268;SDS011;34088;52.232;5.196;2024-02-21T14:40:13;15.80;;;7.35;;
48268;SDS011;34088;52.232;5.196;2024-02-21T14:42:39;11.98;;;6.15;;
48268;SDS011;34088;52.232;5.196;2024-02-21T14:45:05;17.52;;;7.35;;
48268;SDS011;34088;52.232;5.196;2024-02-21T14:49:56;11.48;;;6.53;;
48268;SDS011;34088;52.232;5.196;2024-02-21T14:54:47;8.55;;;6.15;;
48268;SDS011;34088;52.232;5.196;2024-02-21T14:57:16;10.75;;;6.38;;
48268;SDS011;34088;52.232;5.196;2024-02-21T14:59:45;11.90;;;5.63;;
48268;SDS011;34088;52.232;5.196;2024-02-21T15:02:11;10.43;;;5.85;;
48268;SDS011;34088;52.232;5.196;2024-02-21T15:07:01;12.23;;;6.27;;
48268;SDS011;34088;52.232;5.196;2024-02-21T15:09:27;16.75;;;7.30;;
48268;SDS011;34088;52.232;5.196;2024-02-21T15:14:18;13.70;;;6.38;;
48268;SDS011;34088;52.232;5.196;2024-02-21T15:16:45;11.23;;;6.55;;
48268;SDS011;34088;52.232;5.196;2024-02-21T15:19:10;13.82;;;7.10;;
48268;SDS011;34088;52.232;5.196;2024-02-21T15:24:01;13.18;;;6.38;;
48268;SDS011;34088;52.232;5.196;2024-02-21T15:26:28;12.07;;;6.65;;
48268;SDS011;34088;52.232;5.196;2024-02-21T15:28:54;14.73;;;7.40;;
48268;SDS011;34088;52.232;5.196;2024-02-21T15:31:23;14.93;;;7.85;;
48268;SDS011;34088;52.232;5.196;2024-02-21T15:33:52;10.85;;;7.43;;
48268;SDS011;34088;52.232;5.196;2024-02-21T15:36:18;14.10;;;7.20;;
48268;SDS011;34088;52.232;5.196;2024-02-21T15:41:13;9.20;;;6.40;;
48268;SDS011;34088;52.232;5.196;2024-02-21T15:43:41;14.23;;;7.72;;
48268;SDS011;34088;52.232;5.196;2024-02-21T15:46:10;16.23;;;7.57;;
48268;SDS011;34088;52.232;5.196;2024-02-21T15:48:36;14.18;;;7.30;;
48268;SDS011;34088;52.232;5.196;2024-02-21T15:51:02;12.57;;;7.88;;
48268;SDS011;34088;52.232;5.196;2024-02-21T15:53:29;17.13;;;7.93;;
48268;SDS011;34088;52.232;5.196;2024-02-21T15:55:54;17.38;;;8.38;;
48268;SDS011;34088;52.232;5.196;2024-02-21T16:00:47;11.05;;;6.93;;
48268;SDS011;34088;52.232;5.196;2024-02-21T16:03:13;14.18;;;7.70;;
48268;SDS011;34088;52.232;5.196;2024-02-21T16:05:39;17.58;;;8.00;;
48268;SDS011;34088;52.232;5.196;2024-02-21T16:08:06;11.80;;;7.38;;
48268;SDS011;34088;52.232;5.196;2024-02-21T16:10:31;14.25;;;7.68;;
48268;SDS011;34088;52.232;5.196;2024-02-21T16:12:56;10.70;;;7.28;;
48268;SDS011;34088;52.232;5.196;2024-02-21T16:15:22;12.80;;;7.32;;
48268;SDS011;34088;52.232;5.196;2024-02-21T16:17:47;13.07;;;6.70;;
48268;SDS011;34088;52.232;5.196;2024-02-21T16:20:13;15.00;;;7.85;;
48268;SDS011;34088;52.232;5.196;2024-02-21T16:22:40;17.17;;;8.77;;
48268;SDS011;34088;52.232;5.196;2024-02-21T16:25:06;12.65;;;8.20;;
48268;SDS011;34088;52.232;5.196;2024-02-21T16:27:33;14.75;;;8.10;;
48268;SDS011;34088;52.232;5.196;2024-02-21T16:29:58;15.63;;;8.43;;
48268;SDS011;34088;52.232;5.196;2024-02-21T16:34:51;15.07;;;8.33;;
48268;SDS011;34088;52.232;5.196;2024-02-21T16:37:16;11.98;;;7.32;;
48268;SDS011;34088;52.232;5.196;2024-02-21T16:42:07;16.17;;;8.20;;
48268;SDS011;34088;52.232;5.196;2024-02-21T16:44:32;12.57;;;8.20;;
48268;SDS011;34088;52.232;5.196;2024-02-21T16:49:23;14.10;;;8.20;;
48268;SDS011;34088;52.232;5.196;2024-02-21T16:51:50;12.02;;;8.45;;
48268;SDS011;34088;52.232;5.196;2024-02-21T16:56:50;12.68;;;7.93;;
48268;SDS011;34088;52.232;5.196;2024-02-21T16:59:16;13.02;;;8.55;;
48268;SDS011;34088;52.232;5.196;2024-02-21T17:01:42;15.68;;;8.73;;
48268;SDS011;34088;52.232;5.196;2024-02-21T17:04:08;13.45;;;9.02;;
48268;SDS011;34088;52.232;5.196;2024-02-21T17:06:34;14.02;;;8.77;;
48268;SDS011;34088;52.232;5.196;2024-02-21T17:11:26;15.48;;;8.80;;
48268;SDS011;34088;52.232;5.196;2024-02-21T17:13:52;15.48;;;9.20;;
48268;SDS011;34088;52.232;5.196;2024-02-21T17:16:17;13.23;;;8.85;;
48268;SDS011;34088;52.232;5.196;2024-02-21T17:21:08;13.15;;;8.55;;
48268;SDS011;34088;52.232;5.196;2024-02-21T17:23:34;17.15;;;9.15;;
48268;SDS011;34088;52.232;5.196;2024-02-21T17:25:59;16.10;;;9.60;;
48268;SDS011;34088;52.232;5.196;2024-02-21T17:28:24;12.18;;;8.50;;
48268;SDS011;34088;52.232;5.196;2024-02-21T17:30:50;18.42;;;11.23;;
48268;SDS011;34088;52.232;5.196;2024-02-21T17:35:40;13.15;;;8.88;;
48268;SDS011;34088;52.232;5.196;2024-02-21T17:38:08;13.23;;;9.80;;
48268;SDS011;34088;52.232;5.196;2024-02-21T17:43:00;15.13;;;8.95;;
48268;SDS011;34088;52.232;5.196;2024-02-21T17:45:26;15.00;;;9.23;;
48268;SDS011;34088;52.232;5.196;2024-02-21T17:47:51;12.75;;;9.25;;
48268;SDS011;34088;52.232;5.196;2024-02-21T17:52:44;14.70;;;9.57;;
48268;SDS011;34088;52.232;5.196;2024-02-21T17:55:09;11.95;;;8.75;;
48268;SDS011;34088;52.232;5.196;2024-02-21T17:57:37;13.90;;;9.70;;
48268;SDS011;34088;52.232;5.196;2024-02-21T18:00:02;14.30;;;9.40;;
48268;SDS011;34088;52.232;5.196;2024-02-21T18:02:28;16.08;;;9.60;;